НИИ НМП

Карта отелей и гостиниц, располагающихся рядом с аэропортом НИИ НМП :

НИИ НМП
Санкт-Петербург
Санкт-Петербург 59° 52' 24.8808" N, 30° 21' 31.8492" E
Код аэродрома ИКАО
ULLE
Код аэродрома RU
УЛЛЕ
Координаты
N59.87358° E030.35885°
Превышение над уровнем моря
12
Основная полоса
02/20
Курс магнитный
023,9/203,9
Длина основной ВПП
24
Ширина основной ВПП
20
Покрытие основной ВПП
Твёрдое (бетон)
Освещение ВПП
По запросу
Тип: 
Вертодром
Класс аэродрома: 
Принадлежность: 
МЧС
Статус: 
Действующий
Сайт: 
E-mail аэродрома: 
Страна: 
Россия
Регион: 
Санкт-Петербург
Город: 
Санкт-Петербург
Дополнительная информация: 
Оператор: НИИ скорой помощи имени Джанелидзе. Опознавательная дневная маркировка ПП по стандарту учреждений здравоохранения.

Найти трансфер

С помощью этой формы Вы можете найти трансфер из аэропорта НИИ НМП в город, аэропорт или вокзал:

Карта места

Javascript is required to view this map.

Погода в аэропортах:

Авиационная погода в Емельяново

Регион: 
Погода METAR: 
UNKL 171530Z VRB01MPS 1400 1200W BR NSC 09/09 Q1007 R29/CLRD65 NOSIG RMK QFE730
Время наблюдения
2021-09-17T15:30:00Z
Температура C
9.0
Точка росы
9.0
Направление ветра
0
Скорость ветра (узлы)
2
Метео видимость
0.87
Явления погоды
BR
Условия полета
LIFR
Аэропорт подробнее: 

Авиационная погода в Перми

Регион: 
Погода METAR: 
USPP 171530Z 30002MPS 9999 -RA BKN038 06/06 Q1009 R21/290150 TEMPO 3000 -RA BKN005 RMK QFE746
Время наблюдения
2021-09-17T15:30:00Z
Температура C
6.0
Точка росы
6.0
Направление ветра
300
Скорость ветра (узлы)
4
Метео видимость
6.21
Явления погоды
-RA
Условия полета
VFR
Аэропорт подробнее: 

Авиационная погода в аэропорту Сокол

Регион: 
Погода METAR: 
UHMM 171600Z 10007MPS 9999 -SHRA BKN015CB OVC025 08/06 Q1012 RMK QFE744 R28/13005MPS
Время наблюдения
2021-09-17T16:00:00Z
Температура C
8.0
Точка росы
6.0
Направление ветра
100
Скорость ветра (узлы)
14
Метео видимость
6.21
Явления погоды
-SHRA
Условия полета
MVFR
Аэропорт подробнее: 

Авиационная погода в Толмачево

Регион: 
Погода METAR: 
UNNT 171530Z 28004MPS 9999 -SHRA BKN060CB 17/09 Q0997 R25/290160 R34/////// NOSIG RMK QFE738/0984
Время наблюдения
2021-09-17T15:30:00Z
Температура C
17.0
Точка росы
9.0
Направление ветра
280
Скорость ветра (узлы)
8
Метео видимость
6.21
Явления погоды
-SHRA
Условия полета
VFR
Аэропорт подробнее: